createdAt,value
2018-11-29T00:00:25.112Z,51.4
2018-11-29T00:01:26.714Z,51.3
2018-11-29T00:02:28.609Z,51.6
2018-11-29T00:03:29.934Z,51.7
2018-11-29T00:04:31.553Z,51.5
2018-11-29T00:05:32.880Z,51.7
2018-11-29T00:06:34.207Z,51.6
2018-11-29T00:07:35.826Z,51.3
2018-11-29T00:08:37.171Z,51.5
2018-11-29T00:09:38.791Z,51.6
2018-11-29T00:10:40.393Z,51.6
2018-11-29T00:11:42.012Z,51.7
2018-11-29T00:12:43.351Z,51.4
2018-11-29T00:13:44.695Z,51.6
2018-11-29T00:14:46.312Z,51.6
2018-11-29T00:15:47.911Z,51.7
2018-11-29T00:16:49.806Z,51.7
2018-11-29T00:17:51.702Z,51.6
2018-11-29T00:18:53.029Z,52.2
2018-11-29T00:19:54.376Z,51.8
2018-11-29T00:20:55.997Z,51.7
2018-11-29T00:21:57.894Z,51.7
2018-11-29T00:22:59.242Z,51.7
2018-11-29T00:24:00.863Z,51.3
2018-11-29T00:25:02.209Z,51.4
2018-11-29T00:26:03.538Z,51.4
2018-11-29T00:27:04.866Z,51.6
2018-11-29T00:28:06.464Z,52.3
2018-11-29T00:29:07.800Z,51.6
2018-11-29T00:30:09.695Z,51.6
2018-11-29T00:31:11.315Z,51.6
2018-11-29T00:32:12.660Z,51.7
2018-11-29T00:33:14.258Z,51.9
2018-11-29T00:34:15.916Z,51.4
2018-11-29T00:35:17.229Z,51.4
2018-11-29T00:36:19.120Z,51.6
2018-11-29T00:37:20.736Z,51.6
2018-11-29T00:38:22.371Z,51.6
2018-11-29T00:39:23.959Z,51.8
2018-11-29T00:40:25.585Z,51.7
2018-11-29T00:41:26.908Z,51.7
2018-11-29T00:42:28.805Z,51.7
2018-11-29T00:43:29.854Z,51.5
2018-11-29T00:44:31.198Z,51.7
2018-11-29T00:45:32.829Z,51.6
2018-11-29T00:46:34.729Z,51.6
2018-11-29T00:47:36.625Z,51.6
2018-11-29T00:48:38.244Z,51.5
2018-11-29T00:49:40.142Z,51.5
2018-11-29T00:50:42.051Z,51.6
2018-11-29T00:51:43.672Z,51.6
2018-11-29T00:52:45.295Z,51.6
2018-11-29T00:53:46.618Z,51.7
2018-11-29T00:54:48.512Z,51.6
2018-11-29T00:55:50.131Z,51.6
2018-11-29T00:56:51.733Z,51.6
2018-11-29T00:57:53.628Z,51.6
2018-11-29T00:58:55.249Z,51.6
2018-11-29T00:59:56.869Z,51.8
2018-11-29T01:00:58.509Z,51.6
2018-11-29T01:01:59.858Z,51.6
2018-11-29T01:03:01.458Z,51.5
2018-11-29T01:04:02.802Z,51.7
2018-11-29T01:05:05.221Z,51.6
2018-11-29T01:06:06.842Z,51.7
2018-11-29T01:07:08.448Z,51.9
2018-11-29T01:08:09.768Z,51.7
2018-11-29T01:09:11.662Z,51.7
2018-11-29T01:10:13.279Z,51.8
2018-11-29T01:11:15.189Z,51.7
2018-11-29T01:12:16.808Z,51.7
2018-11-29T01:13:18.152Z,51.7
2018-11-29T01:14:19.760Z,51.6
2018-11-29T01:15:20.817Z,51.6
2018-11-29T01:16:22.412Z,52
2018-11-29T01:17:24.322Z,51.6
2018-11-29T01:18:25.642Z,51.6
2018-11-29T01:19:27.258Z,51.6
2018-11-29T01:20:29.153Z,51.6
2018-11-29T01:21:31.048Z,51.7
2018-11-29T01:22:32.670Z,51.6
2018-11-29T01:23:34.292Z,51.6
2018-11-29T01:24:35.889Z,51.5
2018-11-29T01:25:37.490Z,51.6
2018-11-29T01:26:39.106Z,51.4
2018-11-29T01:27:40.725Z,51.7
2018-11-29T01:28:42.325Z,51.4
2018-11-29T01:29:43.923Z,51.6
2018-11-29T01:30:45.551Z,51.7
2018-11-29T01:31:47.445Z,51.6
2018-11-29T01:32:49.067Z,51.6
2018-11-29T01:33:50.963Z,51.7
2018-11-29T01:34:52.580Z,51.6
2018-11-29T01:35:54.213Z,51.6
2018-11-29T01:36:55.836Z,51.6
2018-11-29T01:37:57.458Z,51.7
2018-11-29T01:38:58.529Z,51.5
2018-11-29T01:40:00.145Z,51.6
2018-11-29T01:41:01.469Z,51.6
2018-11-29T01:42:03.091Z,51.7
2018-11-29T01:43:04.141Z,51.7
2018-11-29T01:44:06.034Z,51.6
2018-11-29T01:45:07.410Z,51.6
2018-11-29T01:46:09.291Z,51.7
2018-11-29T01:47:10.912Z,51.6
2018-11-29T01:48:12.808Z,51.4
2018-11-29T01:49:14.424Z,51.6
2018-11-29T01:50:16.323Z,51.6
2018-11-29T01:51:17.934Z,51.6
2018-11-29T01:52:19.531Z,51.7
2018-11-29T01:53:20.877Z,51.8
2018-11-29T01:54:22.771Z,51.6
2018-11-29T01:55:24.095Z,51.6
2018-11-29T01:56:25.706Z,51.7
2018-11-29T01:57:27.053Z,51.7
2018-11-29T01:58:28.673Z,51.8
2018-11-29T01:59:30.294Z,52.1
2018-11-29T02:00:31.623Z,51.7
2018-11-29T02:01:33.518Z,51.6
2018-11-29T02:02:35.137Z,51.7
2018-11-29T02:03:37.032Z,51.6
2018-11-29T02:04:38.930Z,51.6
2018-11-29T02:05:40.826Z,51.5
2018-11-29T02:06:42.444Z,51.7
2018-11-29T02:07:44.343Z,51.7
2018-11-29T02:08:45.939Z,51.6
2018-11-29T02:09:47.301Z,51.7
2018-11-29T02:10:48.625Z,51.9
2018-11-29T02:11:50.517Z,51.8
2018-11-29T02:12:52.412Z,51.7
2018-11-29T02:13:54.306Z,51.7
2018-11-29T02:14:55.922Z,51.6
2018-11-29T02:15:57.240Z,51.6
2018-11-29T02:16:59.135Z,51.6
2018-11-29T02:18:01.034Z,51.5
2018-11-29T02:19:02.629Z,51.6
2018-11-29T02:20:04.245Z,51.6
2018-11-29T02:21:06.140Z,51.6
2018-11-29T02:22:07.760Z,51.7
2018-11-29T02:23:09.110Z,51.7
2018-11-29T02:24:10.728Z,51.7
2018-11-29T02:25:12.325Z,52
2018-11-29T02:26:13.944Z,51.8
2018-11-29T02:27:15.290Z,51.7
2018-11-29T02:28:17.184Z,51.6
2018-11-29T02:29:18.527Z,51.7
2018-11-29T02:30:19.847Z,51.6
2018-11-29T02:31:21.196Z,51.6
2018-11-29T02:32:22.835Z,51.7
2018-11-29T02:33:24.734Z,51.8
2018-11-29T02:34:26.351Z,51.7
2018-11-29T02:35:27.697Z,51.7
2018-11-29T02:36:29.021Z,52.2
2018-11-29T02:37:30.654Z,51.7
2018-11-29T02:38:32.532Z,52.2
2018-11-29T02:39:34.431Z,52.1
2018-11-29T02:40:36.069Z,51.8
2018-11-29T02:41:37.680Z,51.5
2018-11-29T02:42:39.275Z,51.6
2018-11-29T02:43:40.597Z,52.4
2018-11-29T02:44:41.941Z,51.7
2018-11-29T02:45:43.565Z,51.9
2018-11-29T02:46:44.882Z,51.8
2018-11-29T02:47:46.210Z,51.8
2018-11-29T02:48:48.105Z,51.9
2018-11-29T02:49:49.997Z,51.8
2018-11-29T02:50:51.595Z,51.7
2018-11-29T02:51:53.216Z,51.8
2018-11-29T02:52:55.128Z,52.2
2018-11-29T02:53:56.747Z,52.1
2018-11-29T02:54:58.642Z,51.8
2018-11-29T02:56:00.263Z,51.7
2018-11-29T02:57:01.910Z,51.7
2018-11-29T02:58:03.827Z,51.6
2018-11-29T02:59:05.721Z,51.7
2018-11-29T03:00:07.342Z,51.5
2018-11-29T03:01:09.237Z,51.5
2018-11-29T03:02:11.131Z,51.7
2018-11-29T03:03:12.749Z,51.6
2018-11-29T03:04:14.089Z,51.9
2018-11-29T03:05:15.415Z,51.8
2018-11-29T03:06:17.050Z,52
2018-11-29T03:07:18.663Z,51.8
2018-11-29T03:08:20.282Z,51.6
2018-11-29T03:09:21.891Z,51.7
2018-11-29T03:10:23.500Z,52.1
2018-11-29T03:11:25.396Z,51.8
2018-11-29T03:12:27.019Z,51.7
2018-11-29T03:13:28.630Z,51.6
2018-11-29T03:14:30.521Z,51.6
2018-11-29T03:15:32.146Z,51.7
2018-11-29T03:16:33.746Z,51.8
2018-11-29T03:17:35.641Z,51.6
2018-11-29T03:18:37.536Z,51.7
2018-11-29T03:19:39.432Z,52
2018-11-29T03:20:40.758Z,51.9
2018-11-29T03:21:42.653Z,51.6
2018-11-29T03:22:43.780Z,51.8
2018-11-29T03:23:45.097Z,52.1
2018-11-29T03:24:46.991Z,51.7
2018-11-29T03:25:48.611Z,51.8
2018-11-29T03:26:49.964Z,51.7
2018-11-29T03:27:51.578Z,51.6
2018-11-29T03:28:52.346Z,51.5
2018-11-29T03:29:53.966Z,51.6
2018-11-29T03:30:55.870Z,51.7
2018-11-29T03:31:57.494Z,52.1
2018-11-29T03:32:59.390Z,51.7
2018-11-29T03:34:01.006Z,51.7
2018-11-29T03:35:02.901Z,51.8
2018-11-29T03:36:04.499Z,52
2018-11-29T03:37:06.118Z,51.8
2018-11-29T03:38:07.771Z,51.8
2018-11-29T03:39:09.115Z,51.7
2018-11-29T03:40:10.734Z,51.5
2018-11-29T03:41:12.084Z,52
2018-11-29T03:42:13.985Z,52.2
2018-11-29T03:43:15.868Z,51.7
2018-11-29T03:44:17.489Z,51.5
2018-11-29T03:45:18.834Z,51.5
2018-11-29T03:46:20.453Z,51.5
2018-11-29T03:47:21.795Z,51.5
2018-11-29T03:48:23.697Z,51.5
2018-11-29T03:49:25.298Z,51.4
2018-11-29T03:50:26.906Z,51.9
2018-11-29T03:51:28.536Z,51.8
2018-11-29T03:52:30.424Z,51.7
2018-11-29T03:53:31.473Z,51.6
2018-11-29T03:54:33.092Z,51.6
2018-11-29T03:55:34.987Z,51.6
2018-11-29T03:56:36.884Z,52
2018-11-29T03:57:38.503Z,51.7
2018-11-29T03:58:40.121Z,51.6
2018-11-29T03:59:41.717Z,51.6
2018-11-29T04:00:43.609Z,51.5
2018-11-29T04:01:45.503Z,51.6
2018-11-29T04:02:46.555Z,51.4
2018-11-29T04:03:48.200Z,51.5
2018-11-29T04:04:50.098Z,51.6
2018-11-29T04:05:51.991Z,51.7
2018-11-29T04:06:53.610Z,51.6
2018-11-29T04:07:54.958Z,51.6
2018-11-29T04:08:56.286Z,52
2018-11-29T04:09:57.333Z,51.6
2018-11-29T04:10:58.678Z,51.6
2018-11-29T04:11:59.452Z,51.7
2018-11-29T04:13:01.349Z,51.8
2018-11-29T04:14:02.946Z,51.8
2018-11-29T04:15:04.570Z,51.6
2018-11-29T04:16:05.889Z,52
2018-11-29T04:17:07.783Z,51.8
2018-11-29T04:18:09.677Z,51.7
2018-11-29T04:19:11.447Z,51.5
2018-11-29T04:20:13.068Z,51.6
2018-11-29T04:21:14.959Z,51.6
2018-11-29T04:22:16.580Z,51.5
2018-11-29T04:23:17.924Z,51.7
2018-11-29T04:24:19.545Z,51.7
2018-11-29T04:25:21.440Z,51.7
2018-11-29T04:26:23.056Z,52.1
2018-11-29T04:27:24.725Z,51.5
2018-11-29T04:28:26.343Z,51.7
2018-11-29T04:29:28.238Z,51.6
2018-11-29T04:30:30.133Z,51.5
2018-11-29T04:31:31.731Z,51.6
2018-11-29T04:32:33.353Z,51.5
2018-11-29T04:33:34.682Z,51.7
2018-11-29T04:34:36.301Z,51.8
2018-11-29T04:35:37.918Z,51.6
2018-11-29T04:36:39.824Z,51.6
2018-11-29T04:37:41.436Z,51.6
2018-11-29T04:38:42.779Z,51.5
2018-11-29T04:39:44.631Z,51.6
2018-11-29T04:40:46.250Z,51.5
2018-11-29T04:41:47.870Z,51.5
2018-11-29T04:42:49.490Z,51.5
2018-11-29T04:43:51.109Z,51.3
2018-11-29T04:44:53.003Z,51.5
2018-11-29T04:45:54.620Z,51.4
2018-11-29T04:46:56.514Z,51.5
2018-11-29T04:47:57.840Z,51.4
2018-11-29T04:48:59.157Z,51.5
2018-11-29T04:50:01.050Z,51.5
2018-11-29T04:51:02.943Z,51.6
2018-11-29T04:52:04.267Z,51.6
2018-11-29T04:53:06.163Z,51.5
2018-11-29T04:54:07.509Z,51.8
2018-11-29T04:55:08.848Z,51.7
2018-11-29T04:56:10.753Z,51.5
2018-11-29T04:57:12.651Z,51.3
2018-11-29T04:58:14.270Z,51.5
2018-11-29T04:59:15.894Z,52
2018-11-29T05:00:17.213Z,51.5
2018-11-29T05:01:18.830Z,51.6
2018-11-29T05:02:19.897Z,51.3
2018-11-29T05:03:21.517Z,51.6
2018-11-29T05:04:23.121Z,51.5
2018-11-29T05:05:24.753Z,51.4
2018-11-29T05:06:26.098Z,51.3
2018-11-29T05:07:27.721Z,51.3
2018-11-29T05:08:29.660Z,51.3
2018-11-29T05:09:31.258Z,51.4
2018-11-29T05:10:32.598Z,51.5
2018-11-29T05:11:33.650Z,51.3
2018-11-29T05:12:34.424Z,51.4
2018-11-29T05:13:36.316Z,51.3
2018-11-29T05:14:37.716Z,51.3
2018-11-29T05:15:39.336Z,51.6
2018-11-29T05:16:40.953Z,51.5
2018-11-29T05:17:42.850Z,51.3
2018-11-29T05:18:44.469Z,51.3
2018-11-29T05:19:46.358Z,51.4
2018-11-29T05:20:48.261Z,51.2
2018-11-29T05:21:49.876Z,51.1
2018-11-29T05:22:51.770Z,51
2018-11-29T05:23:53.114Z,51
2018-11-29T05:24:54.731Z,50.8
2018-11-29T05:25:56.352Z,50.7
2018-11-29T05:26:58.247Z,51
2018-11-29T05:27:59.847Z,50.9
2018-11-29T05:29:01.471Z,50.7
2018-11-29T05:30:03.089Z,50.7
2018-11-29T05:31:04.983Z,51
2018-11-29T05:32:07.402Z,50.9
2018-11-29T05:33:09.020Z,50.8
2018-11-29T05:34:10.913Z,50.5
2018-11-29T05:35:12.806Z,51.1
2018-11-29T05:36:14.151Z,50.8
2018-11-29T05:37:15.473Z,50.5
2018-11-29T05:38:17.371Z,50.3
2018-11-29T05:39:19.269Z,50.5
2018-11-29T05:40:20.613Z,50.6
2018-11-29T05:41:22.507Z,50.6
2018-11-29T05:42:24.105Z,50.7
2018-11-29T05:43:25.723Z,50.5
2018-11-29T05:44:27.052Z,50.5
2018-11-29T05:45:28.714Z,50.5
2018-11-29T05:46:30.303Z,50.6
2018-11-29T05:47:31.921Z,50.8
2018-11-29T05:48:33.814Z,50.7
2018-11-29T05:49:35.710Z,50.5
2018-11-29T05:50:37.327Z,50.5
2018-11-29T05:51:38.926Z,50.5
2018-11-29T05:52:39.972Z,50.4
2018-11-29T05:53:43.029Z,50.5
2018-11-29T05:54:44.627Z,50.5
2018-11-29T05:55:46.246Z,50.4
2018-11-29T05:56:47.867Z,50.4
2018-11-29T05:57:49.761Z,50.5
2018-11-29T05:58:51.381Z,50.9
2018-11-29T05:59:53.275Z,50.7
2018-11-29T06:00:54.898Z,50.4
2018-11-29T06:01:56.790Z,50.4
2018-11-29T06:02:58.684Z,50.2
2018-11-29T06:04:00.013Z,50.2
2018-11-29T06:05:01.903Z,50.3
2018-11-29T06:06:03.521Z,50.3
2018-11-29T06:07:05.141Z,50.4
2018-11-29T06:08:06.760Z,50.3
2018-11-29T06:09:08.372Z,50.3
2018-11-29T06:10:09.999Z,50.3
2018-11-29T06:11:11.614Z,50.4
2018-11-29T06:12:13.512Z,50.3
2018-11-29T06:13:15.108Z,50.4
2018-11-29T06:14:16.728Z,50.3
2018-11-29T06:15:18.627Z,50.3
2018-11-29T06:16:20.519Z,50.4
2018-11-29T06:17:22.138Z,50.6
2018-11-29T06:18:23.485Z,50.1
2018-11-29T06:19:25.378Z,50.2
2018-11-29T06:20:26.723Z,50.3
2018-11-29T06:21:28.068Z,50.4
2018-11-29T06:22:29.391Z,50.3
2018-11-29T06:23:30.441Z,50.4
2018-11-29T06:24:32.337Z,50.4
2018-11-29T06:25:34.231Z,50.5
2018-11-29T06:26:35.830Z,50.5
2018-11-29T06:27:37.721Z,50.5
2018-11-29T06:28:39.363Z,50.2
2018-11-29T06:29:40.983Z,50.2
2018-11-29T06:30:42.584Z,50.3
2018-11-29T06:31:44.202Z,50.3
2018-11-29T06:32:45.874Z,50.9
2018-11-29T06:33:47.188Z,50.8
2018-11-29T06:34:48.835Z,50.4
2018-11-29T06:35:50.148Z,50.5
2018-11-29T06:36:51.795Z,50.3
2018-11-29T06:37:53.416Z,50.8
2018-11-29T06:38:54.734Z,50.9
2018-11-29T06:39:56.331Z,50.3
2018-11-29T06:40:57.950Z,50.5
2018-11-29T06:41:59.549Z,50.7
2018-11-29T06:43:01.168Z,50.4
2018-11-29T06:44:02.787Z,50.5
2018-11-29T06:45:04.703Z,50.5
2018-11-29T06:46:06.049Z,50.5
2018-11-29T06:47:07.100Z,50.4
2018-11-29T06:48:08.422Z,50.7
2018-11-29T06:49:10.039Z,50.8
2018-11-29T06:50:11.092Z,51.3
2018-11-29T06:51:12.711Z,51
2018-11-29T06:52:14.605Z,50.8
2018-11-29T06:53:16.549Z,51.2
2018-11-29T06:54:18.448Z,50.6
2018-11-29T06:55:19.768Z,50.8
2018-11-29T06:56:21.117Z,50.5
2018-11-29T06:57:22.462Z,50.4
2018-11-29T06:58:24.081Z,50.6
2018-11-29T06:59:25.713Z,50.3
2018-11-29T07:00:26.762Z,50.6
2018-11-29T07:01:28.360Z,50.5
2018-11-29T07:02:29.959Z,50.4
2018-11-29T07:03:31.555Z,50.2
2018-11-29T07:04:33.177Z,50.5
2018-11-29T07:05:34.796Z,50.2
2018-11-29T07:06:35.887Z,50.3
2018-11-29T07:07:37.231Z,50.2
2018-11-29T07:08:39.126Z,50.5
2018-11-29T07:09:40.726Z,50.5
2018-11-29T07:10:42.329Z,50.3
2018-11-29T07:11:43.963Z,50.3
2018-11-29T07:12:45.309Z,50.2
2018-11-29T07:13:47.203Z,50.3
2018-11-29T07:14:49.096Z,50.3
2018-11-29T07:15:50.990Z,50.5
2018-11-29T07:16:52.589Z,50.5
2018-11-29T07:17:53.638Z,50.5
2018-11-29T07:18:54.957Z,50.5
2018-11-29T07:19:56.306Z,50.4
2018-11-29T07:20:58.200Z,50.4
2018-11-29T07:21:59.820Z,50.2
2018-11-29T07:23:01.734Z,50.3
2018-11-29T07:24:03.628Z,50.3
2018-11-29T07:25:05.523Z,50.3
2018-11-29T07:26:07.123Z,50.4
2018-11-29T07:27:08.741Z,50.3
2018-11-29T07:28:10.358Z,50.4
2018-11-29T07:29:16.710Z,50.4
2018-11-29T07:30:18.943Z,50.4
2018-11-29T07:31:20.560Z,50.4
2018-11-29T07:32:22.180Z,50.4
2018-11-29T07:33:23.801Z,50.5
2018-11-29T07:34:24.849Z,50.3
2018-11-29T07:35:25.897Z,50.3
2018-11-29T07:36:26.967Z,50.5
2018-11-29T07:37:28.035Z,50.4
2018-11-29T07:38:29.082Z,50.3
2018-11-29T07:39:30.982Z,50.3
2018-11-29T07:40:32.874Z,50.3
2018-11-29T07:41:34.499Z,50.3
2018-11-29T07:42:36.096Z,50.4
2018-11-29T07:43:38.045Z,50.3
2018-11-29T07:44:39.660Z,50.3
2018-11-29T07:45:41.678Z,50.6
2018-11-29T07:46:43.482Z,50.3
2018-11-29T07:47:45.148Z,50.4
2018-11-29T07:48:46.818Z,50.2
2018-11-29T07:49:48.260Z,50.2
2018-11-29T07:50:49.640Z,50.2
2018-11-29T07:51:51.623Z,50.3
2018-11-29T07:52:53.770Z,50.4
2018-11-29T07:53:55.680Z,50.5
2018-11-29T07:54:57.302Z,50.3
2018-11-29T07:55:58.923Z,50.3
2018-11-29T07:57:00.818Z,50.7
2018-11-29T07:58:02.436Z,50.3
2018-11-29T07:59:04.060Z,50.4
2018-11-29T08:00:05.679Z,50.4
2018-11-29T08:01:07.279Z,50.2
2018-11-29T08:02:09.172Z,50.4
2018-11-29T08:03:10.865Z,50.3
2018-11-29T08:04:11.921Z,50.3
2018-11-29T08:05:13.519Z,50.3
2018-11-29T08:06:14.841Z,50.3
2018-11-29T08:07:16.460Z,50.2
2018-11-29T08:08:18.079Z,50.3
2018-11-29T08:09:19.401Z,50.3
2018-11-29T08:10:20.449Z,50.3
2018-11-29T08:11:21.772Z,50.3
2018-11-29T08:12:23.376Z,50.1
2018-11-29T08:13:24.998Z,50.3
2018-11-29T08:14:26.052Z,50.2
2018-11-29T08:15:27.668Z,50.2
2018-11-29T08:16:29.566Z,50.2
2018-11-29T08:17:30.892Z,50.2
2018-11-29T08:18:32.513Z,50.5
2018-11-29T08:19:34.410Z,50.2
2018-11-29T08:20:36.307Z,50.3
2018-11-29T08:21:38.205Z,50.2
2018-11-29T08:22:39.823Z,50.3
2018-11-29T08:23:41.427Z,50.2
2018-11-29T08:24:42.749Z,50
2018-11-29T08:25:44.409Z,50.3
2018-11-29T08:26:45.737Z,50.2
2018-11-29T08:27:47.632Z,50.4
2018-11-29T08:28:48.975Z,50.4
2018-11-29T08:29:50.313Z,50.6
2018-11-29T08:30:51.386Z,50.7
2018-11-29T08:31:52.728Z,50.7
2018-11-29T08:32:54.347Z,50.3
2018-11-29T08:33:55.988Z,50.4
2018-11-29T08:34:57.606Z,50.3
2018-11-29T08:35:59.204Z,50.3
2018-11-29T08:37:00.802Z,50.2
2018-11-29T08:38:01.849Z,50.5
2018-11-29T08:39:04.339Z,50.3
2018-11-29T08:40:06.232Z,50.3
2018-11-29T08:41:07.830Z,50.3
2018-11-29T08:42:08.888Z,50.3
2018-11-29T08:43:09.936Z,50.5
2018-11-29T08:44:11.556Z,50.4
2018-11-29T08:45:12.605Z,50.4
2018-11-29T08:46:14.241Z,50.6
2018-11-29T08:47:15.862Z,50.6
2018-11-29T08:48:17.186Z,50.5
2018-11-29T08:49:19.081Z,50.4
2018-11-29T08:50:22.214Z,50.6
2018-11-29T08:51:24.119Z,50.8
2018-11-29T08:52:25.836Z,50.8
2018-11-29T08:53:27.733Z,50.9
2018-11-29T08:54:29.630Z,50.9
2018-11-29T08:55:31.247Z,50.9
2018-11-29T08:56:32.298Z,50.8
2018-11-29T08:57:33.914Z,51
2018-11-29T08:58:35.972Z,50.9
2018-11-29T08:59:37.577Z,51
2018-11-29T09:00:40.373Z,51
2018-11-29T09:01:41.702Z,51.1
2018-11-29T09:02:43.595Z,50.9
2018-11-29T09:03:45.233Z,50.8
2018-11-29T09:04:46.836Z,51
2018-11-29T09:05:48.182Z,51
2018-11-29T09:06:49.833Z,51.1
2018-11-29T09:07:51.731Z,50.9
2018-11-29T09:08:53.631Z,51
2018-11-29T09:09:54.943Z,51
2018-11-29T09:10:56.595Z,51
2018-11-29T09:11:58.214Z,51.1
2018-11-29T09:12:59.813Z,50.9
2018-11-29T09:14:00.583Z,51.3
2018-11-29T09:15:02.209Z,51
2018-11-29T09:16:03.550Z,51.1
2018-11-29T09:17:05.447Z,51.1
2018-11-29T09:18:07.065Z,51
2018-11-29T09:19:08.972Z,51
2018-11-29T09:20:10.021Z,51
2018-11-29T09:21:11.916Z,51
2018-11-29T09:22:13.537Z,50.9
2018-11-29T09:23:15.435Z,50.8
2018-11-29T09:24:17.055Z,50.8
2018-11-29T09:25:18.959Z,50.9
2018-11-29T09:26:20.858Z,50.8
2018-11-29T09:27:22.749Z,50.7
2018-11-29T09:28:24.143Z,50.7
2018-11-29T09:29:25.603Z,51.1
2018-11-29T09:30:27.497Z,51.1
2018-11-29T09:31:29.119Z,50.8
2018-11-29T09:32:30.444Z,51.3
2018-11-29T09:33:32.066Z,50.7
2018-11-29T09:34:33.698Z,50.6
2018-11-29T09:35:35.318Z,50.8
2018-11-29T09:36:36.642Z,50.5
2018-11-29T09:37:38.534Z,50.3
2018-11-29T09:38:40.152Z,50.3
2018-11-29T09:39:42.046Z,50.4
2018-11-29T09:40:43.996Z,50.4
2018-11-29T09:41:45.890Z,50.5
2018-11-29T09:42:47.511Z,50.8
2018-11-29T09:43:49.409Z,50.7
2018-11-29T09:44:50.465Z,50.5
2018-11-29T09:45:52.083Z,50.4
2018-11-29T09:46:53.978Z,50.3
2018-11-29T09:47:55.886Z,50.4
2018-11-29T09:48:57.498Z,50.3
2018-11-29T09:49:59.117Z,50.4
2018-11-29T09:51:00.190Z,51.1
2018-11-29T09:52:01.811Z,50.4
2018-11-29T09:53:03.434Z,50.7
2018-11-29T09:54:04.479Z,50.4
2018-11-29T09:55:05.808Z,50.7
2018-11-29T09:56:07.695Z,50.8
2018-11-29T09:57:09.039Z,50.4
2018-11-29T09:58:10.660Z,50.3
2018-11-29T09:59:12.552Z,50.6
2018-11-29T10:00:14.447Z,50.5
2018-11-29T10:01:15.774Z,50.7
2018-11-29T10:02:17.393Z,50.6
2018-11-29T10:03:19.288Z,50.3
2018-11-29T10:04:20.886Z,50.3
2018-11-29T10:05:22.285Z,50.3
2018-11-29T10:06:23.634Z,50.4
2018-11-29T10:07:24.682Z,50.3
2018-11-29T10:08:26.707Z,50.3
2018-11-29T10:09:28.030Z,50.3
2018-11-29T10:10:29.924Z,50.3
2018-11-29T10:11:31.883Z,50.3
2018-11-29T10:12:33.635Z,50.4
2018-11-29T10:13:34.688Z,50.3
2018-11-29T10:14:36.601Z,50.3
2018-11-29T10:15:37.955Z,50.3
2018-11-29T10:16:39.851Z,50.7
2018-11-29T10:17:41.480Z,50.3
2018-11-29T10:18:43.097Z,50.3
2018-11-29T10:19:44.990Z,50.3
2018-11-29T10:20:46.620Z,50.3
2018-11-29T10:21:47.965Z,50.1
2018-11-29T10:22:49.596Z,50.1
2018-11-29T10:23:51.210Z,50.3
2018-11-29T10:24:52.534Z,50.3
2018-11-29T10:25:54.156Z,50.3
2018-11-29T10:26:55.779Z,50.3
2018-11-29T10:27:57.394Z,50.2
2018-11-29T10:28:59.016Z,50.4
2018-11-29T10:30:00.064Z,50.3
2018-11-29T10:31:01.964Z,50.3
2018-11-29T10:32:03.287Z,50.3
2018-11-29T10:33:05.042Z,50.2
2018-11-29T10:34:07.204Z,50.3
2018-11-29T10:35:08.596Z,50.7
2018-11-29T10:36:09.917Z,50.7
2018-11-29T10:37:11.533Z,50.4
2018-11-29T10:38:13.157Z,51.2
2018-11-29T10:39:14.499Z,50.4
2018-11-29T10:40:16.096Z,50.5
2018-11-29T10:41:17.761Z,50.5
2018-11-29T10:42:18.912Z,50.5
2018-11-29T10:43:20.328Z,50.6
2018-11-29T10:44:21.743Z,50.3
2018-11-29T10:45:23.579Z,50.4
2018-11-29T10:46:25.477Z,50.4
2018-11-29T10:47:27.603Z,50.4
2018-11-29T10:48:29.889Z,50.5
2018-11-29T10:49:31.888Z,50.4
2018-11-29T10:50:33.596Z,50.4
2018-11-29T10:51:35.643Z,50.7
2018-11-29T10:52:37.139Z,50.7
2018-11-29T10:53:39.257Z,51
2018-11-29T10:54:40.586Z,50.8
2018-11-29T10:55:42.301Z,50.6
2018-11-29T10:56:43.901Z,50.9
2018-11-29T10:57:45.523Z,50.9
2018-11-29T10:58:47.427Z,50.4
2018-11-29T10:59:49.082Z,50.4
2018-11-29T11:00:51.215Z,50.5
2018-11-29T11:01:52.702Z,50.5
2018-11-29T11:02:54.666Z,50.5
2018-11-29T11:03:56.351Z,50.7
2018-11-29T11:04:57.974Z,50.5
2018-11-29T11:06:00.015Z,50.4
2018-11-29T11:07:01.414Z,50.5
2018-11-29T11:08:09.086Z,50.6
2018-11-29T11:09:11.128Z,50.5
2018-11-29T11:10:12.811Z,50.6
2018-11-29T11:11:14.792Z,50.4
2018-11-29T11:12:19.283Z,50.6
2018-11-29T11:13:21.179Z,50.6
2018-11-29T11:14:22.803Z,50.4
2018-11-29T11:15:24.129Z,50.7
2018-11-29T11:16:25.455Z,50.6
2018-11-29T11:17:26.787Z,50.4
2018-11-29T11:18:27.852Z,50.4
2018-11-29T11:19:29.476Z,50.4
2018-11-29T11:20:31.376Z,50.3
2018-11-29T11:21:32.998Z,50.4
2018-11-29T11:22:34.075Z,50.4
2018-11-29T11:23:35.773Z,50.7
2018-11-29T11:24:37.401Z,50.3
2018-11-29T11:25:38.761Z,50.3
2018-11-29T11:26:40.770Z,50.2
2018-11-29T11:27:42.730Z,50.5
2018-11-29T11:28:44.351Z,50.3
2018-11-29T11:29:45.728Z,50.4
2018-11-29T11:30:47.663Z,50.4
2018-11-29T11:31:49.301Z,50.5
2018-11-29T11:32:50.960Z,50.3
2018-11-29T11:33:52.771Z,50.3
2018-11-29T11:34:53.946Z,50.5
2018-11-29T11:35:55.842Z,50.4
2018-11-29T11:36:57.190Z,50.4
2018-11-29T11:37:58.826Z,50.4
2018-11-29T11:39:00.451Z,50.4
2018-11-29T11:40:01.790Z,50.5
2018-11-29T11:41:02.873Z,50.6
2018-11-29T11:42:04.782Z,50.4
2018-11-29T11:43:06.568Z,50.4
2018-11-29T11:44:08.741Z,50.7
2018-11-29T11:45:10.064Z,50.7
2018-11-29T11:46:11.981Z,50.4
2018-11-29T11:47:13.907Z,50.4
2018-11-29T11:48:15.846Z,50.4
2018-11-29T11:49:17.763Z,50.4
2018-11-29T11:50:19.659Z,50.4
2018-11-29T11:51:21.281Z,50.4
2018-11-29T11:52:22.966Z,50.4
2018-11-29T11:53:24.313Z,50.3
2018-11-29T11:54:25.366Z,50.3
2018-11-29T11:55:30.755Z,50.4
2018-11-29T11:56:32.377Z,50.4
2018-11-29T11:57:33.973Z,50.5
2018-11-29T11:58:35.888Z,50.4
2018-11-29T11:59:37.531Z,50.4
2018-11-29T12:00:38.609Z,50.4
2018-11-29T12:01:39.956Z,50.4
2018-11-29T12:02:41.579Z,50.7
2018-11-29T12:03:43.021Z,50.4
2018-11-29T12:04:48.827Z,50.7
2018-11-29T12:05:50.723Z,50.5
2018-11-29T12:06:52.340Z,50.5
2018-11-29T12:07:53.684Z,50.9
2018-11-29T12:08:55.654Z,50.5
2018-11-29T12:09:57.267Z,50.5
2018-11-29T12:10:59.175Z,50.6
2018-11-29T12:12:00.782Z,50.3
2018-11-29T12:13:02.676Z,50.4
2018-11-29T12:14:04.292Z,50.6
2018-11-29T12:15:05.891Z,50.6
2018-11-29T12:16:07.511Z,50.6
2018-11-29T12:17:09.411Z,50.3
2018-11-29T12:18:11.304Z,50.4
2018-11-29T12:19:12.932Z,50.5
2018-11-29T12:20:14.257Z,50.6
2018-11-29T12:21:16.156Z,50.4
2018-11-29T12:22:17.777Z,50.7
2018-11-29T12:23:19.102Z,50.5
2018-11-29T12:24:21.003Z,50.8
2018-11-29T12:25:22.956Z,50.7
2018-11-29T12:26:24.581Z,50.4
2018-11-29T12:27:26.200Z,50.5
2018-11-29T12:28:27.823Z,50.6
2018-11-29T12:29:29.725Z,50.5
2018-11-29T12:30:31.616Z,50.5
2018-11-29T12:31:33.241Z,50.4
2018-11-29T12:32:35.139Z,50.3
2018-11-29T12:33:36.500Z,50.8
2018-11-29T12:34:37.804Z,50.6
2018-11-29T12:35:39.138Z,50.5
2018-11-29T12:36:40.759Z,50.5
2018-11-29T12:37:42.378Z,50.4
2018-11-29T12:38:44.274Z,50.3
2018-11-29T12:39:45.594Z,50.5
2018-11-29T12:40:47.490Z,50.5
2018-11-29T12:41:49.110Z,50.3
2018-11-29T12:42:51.005Z,50.4
2018-11-29T12:43:52.901Z,50.8
2018-11-29T12:44:54.231Z,50.5
2018-11-29T12:45:56.126Z,50.5
2018-11-29T12:46:57.748Z,50.9
2018-11-29T12:47:59.371Z,50.8
2018-11-29T12:49:01.268Z,50.5
2018-11-29T12:50:02.887Z,50.3
2018-11-29T12:51:04.217Z,50.4
2018-11-29T12:52:05.859Z,50.5
2018-11-29T12:53:07.470Z,50.4
2018-11-29T12:54:09.162Z,50.3
2018-11-29T12:55:11.097Z,50.3
2018-11-29T12:56:12.417Z,50.5
2018-11-29T12:57:14.311Z,50.4
2018-11-29T12:58:15.908Z,50.4
2018-11-29T12:59:17.531Z,50.5
2018-11-29T13:00:19.158Z,50.3
2018-11-29T13:01:20.777Z,50.5
2018-11-29T13:02:22.399Z,50.7
2018-11-29T13:03:24.295Z,50.7
2018-11-29T13:04:25.897Z,51
2018-11-29T13:05:27.495Z,51
2018-11-29T13:06:29.112Z,51
2018-11-29T13:07:30.443Z,50.7
2018-11-29T13:08:32.338Z,50.8
2018-11-29T13:09:33.937Z,50.9
2018-11-29T13:10:35.833Z,50.7
2018-11-29T13:11:37.178Z,50.4
2018-11-29T13:12:39.074Z,50.7
2018-11-29T13:13:40.683Z,50.8
2018-11-29T13:14:42.312Z,50.8
2018-11-29T13:15:43.655Z,50.9
2018-11-29T13:16:45.276Z,51.1
2018-11-29T13:17:46.900Z,51
2018-11-29T13:18:48.954Z,51
2018-11-29T13:19:50.846Z,51
2018-11-29T13:20:52.467Z,51
2018-11-29T13:21:53.818Z,51
2018-11-29T13:22:55.416Z,51
2018-11-29T13:24:01.031Z,51
2018-11-29T13:25:02.773Z,50.9
2018-11-29T13:26:04.398Z,50.9
2018-11-29T13:27:06.018Z,50.8
2018-11-29T13:28:07.641Z,50.9
2018-11-29T13:29:09.312Z,50.8
2018-11-29T13:30:10.920Z,50.8
2018-11-29T13:31:12.293Z,50.8
2018-11-29T13:32:13.637Z,50.8
2018-11-29T13:33:15.258Z,50.8
2018-11-29T13:34:16.579Z,50.8
2018-11-29T13:35:17.921Z,51
2018-11-29T13:36:19.759Z,51
2018-11-29T13:37:21.575Z,51
2018-11-29T13:38:23.747Z,51.3
2018-11-29T13:39:25.095Z,51
2018-11-29T13:40:26.773Z,51
2018-11-29T13:41:27.870Z,51.2
2018-11-29T13:42:28.931Z,51
2018-11-29T13:43:30.782Z,50.9